createdAt,value
2022-10-28T00:01:59.486Z,3.80
2022-10-28T00:06:57.167Z,3.70
2022-10-28T00:09:25.249Z,4.22
2022-10-28T00:11:53.451Z,3.90
2022-10-28T00:14:21.594Z,4.28
2022-10-28T00:16:49.725Z,4.43
2022-10-28T00:19:18.633Z,4.00
2022-10-28T00:21:48.044Z,3.60
2022-10-28T00:24:16.231Z,3.10
2022-10-28T00:26:45.928Z,4.70
2022-10-28T00:29:15.473Z,4.72
2022-10-28T00:31:44.059Z,4.13
2022-10-28T00:34:14.620Z,3.80
2022-10-28T00:36:44.562Z,3.90
2022-10-28T00:39:15.603Z,4.43
2022-10-28T00:41:45.718Z,4.55
2022-10-28T00:44:53.419Z,4.30
2022-10-28T00:47:33.075Z,3.85
2022-10-28T00:50:08.794Z,4.20
2022-10-28T00:52:37.201Z,4.70
2022-10-28T00:55:09.038Z,4.25
2022-10-28T00:57:39.242Z,4.32
2022-10-28T01:00:09.239Z,3.72
2022-10-28T01:02:45.069Z,4.22
2022-10-28T01:05:16.118Z,4.63
2022-10-28T01:07:45.570Z,4.60
2022-10-28T01:10:15.886Z,4.40
2022-10-28T01:12:56.852Z,4.07
2022-10-28T01:15:32.934Z,4.82
2022-10-28T01:18:10.158Z,3.60
2022-10-28T01:21:17.955Z,3.92
2022-10-28T01:23:57.694Z,4.45
2022-10-28T01:26:51.029Z,4.10
2022-10-28T01:29:54.726Z,4.32
2022-10-28T01:32:32.190Z,4.25
2022-10-28T01:35:12.535Z,3.83
2022-10-28T01:37:48.501Z,4.45
2022-10-28T01:40:27.410Z,5.80
2022-10-28T01:43:03.367Z,5.15
2022-10-28T01:45:38.384Z,5.97
2022-10-28T01:48:11.918Z,4.13
2022-10-28T01:50:47.518Z,4.20
2022-10-28T01:53:19.929Z,5.47
2022-10-28T01:55:51.746Z,4.75
2022-10-28T01:58:24.804Z,4.65
2022-10-28T02:00:53.289Z,4.30
2022-10-28T02:03:23.719Z,5.65
2022-10-28T02:05:55.091Z,4.95
2022-10-28T02:08:45.337Z,4.68
2022-10-28T02:11:27.357Z,4.38
2022-10-28T02:14:05.180Z,4.28
2022-10-28T02:16:44.052Z,5.25
2022-10-28T02:19:20.027Z,4.10
2022-10-28T02:21:56.369Z,4.30
2022-10-28T02:24:33.747Z,4.78
2022-10-28T02:27:09.257Z,5.03
2022-10-28T02:29:42.478Z,5.75
2022-10-28T02:32:15.273Z,4.40
2022-10-28T02:34:48.100Z,3.92
2022-10-28T02:37:22.315Z,4.60
2022-10-28T02:39:53.680Z,5.43
2022-10-28T02:42:25.857Z,3.95
2022-10-28T02:44:59.777Z,5.55
2022-10-28T02:47:32.869Z,4.57
2022-10-28T02:50:07.882Z,4.47
2022-10-28T02:52:36.605Z,4.50
2022-10-28T02:55:06.969Z,4.78
2022-10-28T02:57:37.056Z,4.47
2022-10-28T03:00:09.524Z,4.13
2022-10-28T03:02:38.057Z,5.20
2022-10-28T03:05:08.442Z,4.47
2022-10-28T03:07:36.498Z,4.47
2022-10-28T03:10:05.052Z,3.90
2022-10-28T03:12:33.074Z,3.95
2022-10-28T03:15:01.829Z,4.32
2022-10-28T03:17:30.058Z,5.65
2022-10-28T03:19:58.160Z,4.00
2022-10-28T03:22:27.576Z,4.57
2022-10-28T03:24:55.587Z,4.03
2022-10-28T03:27:23.787Z,5.05
2022-10-28T03:29:51.757Z,3.92
2022-10-28T03:34:55.861Z,3.28
2022-10-28T03:37:23.974Z,4.03
2022-10-28T03:39:53.501Z,4.07
2022-10-28T03:42:21.560Z,3.30
2022-10-28T03:44:49.589Z,4.55
2022-10-28T03:47:17.616Z,3.75
2022-10-28T03:49:45.872Z,3.45
2022-10-28T03:52:13.904Z,4.00
2022-10-28T03:54:42.079Z,3.42
2022-10-28T03:57:11.549Z,3.83
2022-10-28T03:59:39.732Z,3.47
2022-10-28T04:02:07.984Z,4.65
2022-10-28T04:04:36.318Z,3.80
2022-10-28T04:07:04.442Z,3.55
2022-10-28T04:09:32.440Z,3.88
2022-10-28T04:12:00.726Z,3.72
2022-10-28T04:14:30.191Z,3.10
2022-10-28T04:16:58.481Z,3.95
2022-10-28T04:19:26.570Z,3.20
2022-10-28T04:21:54.794Z,3.22
2022-10-28T04:24:22.927Z,3.88
2022-10-28T04:26:50.886Z,3.75
2022-10-28T04:29:19.460Z,3.90
2022-10-28T04:31:52.164Z,3.40
2022-10-28T04:34:21.651Z,4.40
2022-10-28T04:36:51.942Z,3.70
2022-10-28T04:39:20.198Z,3.60
2022-10-28T04:41:48.343Z,4.70
2022-10-28T04:44:16.375Z,4.30
2022-10-28T04:46:44.459Z,4.15
2022-10-28T04:49:13.975Z,4.07
2022-10-28T04:51:42.321Z,4.43
2022-10-28T04:54:10.339Z,3.78
2022-10-28T04:56:38.453Z,3.22
2022-10-28T04:59:06.626Z,3.30
2022-10-28T05:01:34.906Z,3.88
2022-10-28T05:04:03.290Z,3.60
2022-10-28T05:06:32.956Z,3.33
2022-10-28T05:09:01.055Z,3.80
2022-10-28T05:11:29.162Z,3.25
2022-10-28T05:13:57.421Z,3.85
2022-10-28T05:16:25.707Z,4.03
2022-10-28T05:18:53.976Z,3.70
2022-10-28T05:21:22.053Z,3.50
2022-10-28T05:23:53.168Z,3.70
2022-10-28T05:26:21.170Z,3.85
2022-10-28T05:28:50.291Z,3.42
2022-10-28T05:31:18.756Z,3.45
2022-10-28T05:33:46.854Z,3.55
2022-10-28T05:36:20.104Z,4.50
2022-10-28T05:38:49.697Z,4.07
2022-10-28T05:41:40.655Z,3.38
2022-10-28T05:44:08.739Z,3.22
2022-10-28T05:46:36.900Z,3.50
2022-10-28T05:49:05.723Z,3.75
2022-10-28T05:51:33.839Z,3.65
2022-10-28T05:54:01.946Z,3.40
2022-10-28T05:56:30.434Z,3.15
2022-10-28T05:58:59.919Z,4.03
2022-10-28T06:01:28.143Z,3.50
2022-10-28T06:03:56.459Z,4.00
2022-10-28T06:06:24.663Z,3.25
2022-10-28T06:08:52.799Z,3.90
2022-10-28T06:11:19.271Z,2.75
2022-10-28T06:13:47.382Z,3.20
2022-10-28T06:16:16.821Z,2.67
2022-10-28T06:18:45.001Z,3.58
2022-10-28T06:21:14.114Z,3.17
2022-10-28T06:23:46.871Z,3.10
2022-10-28T06:26:14.949Z,4.20
2022-10-28T06:28:43.051Z,2.60
2022-10-28T06:31:11.139Z,3.40
2022-10-28T06:33:40.533Z,3.40
2022-10-28T06:36:09.561Z,3.53
2022-10-28T06:38:37.602Z,3.22
2022-10-28T06:41:06.104Z,3.03
2022-10-28T06:43:34.084Z,2.63
2022-10-28T06:46:03.989Z,2.83
2022-10-28T06:48:34.103Z,2.80
2022-10-28T06:51:03.669Z,3.67
2022-10-28T06:53:31.702Z,2.92
2022-10-28T06:56:00.306Z,2.70
2022-10-28T06:58:28.545Z,4.22
2022-10-28T07:00:57.292Z,3.47
2022-10-28T07:03:25.625Z,3.13
2022-10-28T07:05:53.652Z,2.70
2022-10-28T07:08:23.230Z,3.50
2022-10-28T07:11:01.969Z,3.40
2022-10-28T07:13:30.708Z,4.03
2022-10-28T07:16:01.532Z,2.65
2022-10-28T07:18:30.905Z,3.33
2022-10-28T07:21:00.150Z,3.40
2022-10-28T07:23:31.684Z,4.78
2022-10-28T07:26:00.011Z,3.35
2022-10-28T07:28:29.048Z,2.90
2022-10-28T07:31:01.952Z,3.60
2022-10-28T07:33:30.310Z,2.35
2022-10-28T07:35:58.410Z,3.60
2022-10-28T07:38:26.545Z,2.80
2022-10-28T07:40:56.067Z,3.38
2022-10-28T07:43:24.284Z,3.03
2022-10-28T07:45:57.147Z,3.33
2022-10-28T07:48:25.714Z,3.20
2022-10-28T07:50:53.779Z,3.55
2022-10-28T07:53:24.826Z,2.97
2022-10-28T07:55:58.552Z,3.25
2022-10-28T07:58:27.138Z,2.63
2022-10-28T08:00:55.783Z,3.97
2022-10-28T08:03:31.215Z,3.08
2022-10-28T08:06:08.847Z,3.85
2022-10-28T08:08:37.448Z,3.20
2022-10-28T08:11:12.476Z,3.15
2022-10-28T08:13:40.893Z,2.95
2022-10-28T08:16:09.742Z,2.08
2022-10-28T08:18:37.976Z,3.22
2022-10-28T08:21:07.770Z,3.25
2022-10-28T08:23:36.155Z,2.65
2022-10-28T08:26:04.405Z,3.20
2022-10-28T08:28:33.937Z,2.50
2022-10-28T08:31:10.475Z,2.67
2022-10-28T08:33:39.650Z,3.92
2022-10-28T08:36:09.284Z,3.40
2022-10-28T08:38:40.508Z,3.55
2022-10-28T08:41:23.995Z,2.90
2022-10-28T08:44:08.352Z,3.55
2022-10-28T08:46:55.196Z,3.03
2022-10-28T08:49:24.751Z,4.75
2022-10-28T08:51:56.511Z,3.50
2022-10-28T08:54:32.244Z,3.35
2022-10-28T08:57:02.686Z,4.53
2022-10-28T08:59:36.423Z,3.22
2022-10-28T09:02:12.729Z,3.78
2022-10-28T09:04:43.806Z,3.28
2022-10-28T09:07:17.948Z,3.47
2022-10-28T09:09:46.650Z,2.90
2022-10-28T09:12:28.842Z,3.35
2022-10-28T09:15:13.137Z,2.55
2022-10-28T09:17:52.339Z,2.40
2022-10-28T09:20:29.762Z,3.30
2022-10-28T09:23:00.000Z,3.13
2022-10-28T09:25:35.636Z,3.70
2022-10-28T09:28:21.119Z,3.55
2022-10-28T09:31:12.078Z,3.10
2022-10-28T09:34:01.015Z,3.35
2022-10-28T09:36:35.560Z,3.20
2022-10-28T09:39:06.297Z,3.40
2022-10-28T09:41:38.285Z,2.57
2022-10-28T09:44:14.866Z,3.20
2022-10-28T09:46:48.028Z,2.77
2022-10-28T09:49:22.013Z,3.27
2022-10-28T09:52:27.368Z,3.73
2022-10-28T09:54:56.268Z,3.73
2022-10-28T09:57:56.793Z,3.53
2022-10-28T10:00:25.209Z,2.90
2022-10-28T10:02:58.765Z,3.40
2022-10-28T10:05:27.372Z,3.83
2022-10-28T10:07:58.901Z,3.73
2022-10-28T10:10:32.269Z,2.77
2022-10-28T10:13:04.483Z,3.43
2022-10-28T10:15:37.582Z,3.73
2022-10-28T10:18:12.515Z,2.63
2022-10-28T10:20:49.790Z,2.33
2022-10-28T10:23:28.665Z,3.07
2022-10-28T10:25:59.354Z,2.90
2022-10-28T10:28:29.336Z,2.70
2022-10-28T10:31:05.665Z,3.70
2022-10-28T10:33:37.529Z,2.80
2022-10-28T10:36:15.717Z,2.83
2022-10-28T10:38:50.195Z,4.00
2022-10-28T10:41:36.638Z,3.23
2022-10-28T10:44:30.024Z,2.80
2022-10-28T10:47:21.419Z,4.33
2022-10-28T10:49:52.172Z,3.27
2022-10-28T10:52:30.509Z,2.70
2022-10-28T10:55:02.783Z,3.23
2022-10-28T10:57:31.163Z,3.20
2022-10-28T10:59:59.783Z,3.13
2022-10-28T11:02:32.661Z,3.00
2022-10-28T11:05:05.527Z,3.57
2022-10-28T11:07:34.563Z,3.00
2022-10-28T11:10:03.283Z,3.27
2022-10-28T11:12:35.369Z,2.80
2022-10-28T11:15:05.577Z,3.60
2022-10-28T11:17:35.816Z,3.17
2022-10-28T11:20:25.519Z,3.20
2022-10-28T11:23:06.680Z,3.50
2022-10-28T11:25:58.420Z,3.40
2022-10-28T11:28:38.639Z,2.97
2022-10-28T11:31:31.575Z,2.63
2022-10-28T11:34:15.120Z,3.10
2022-10-28T11:36:56.097Z,2.97
2022-10-28T11:39:32.908Z,3.50
2022-10-28T11:42:22.136Z,4.23
2022-10-28T11:44:55.316Z,3.00
2022-10-28T11:47:42.924Z,2.87
2022-10-28T11:50:23.937Z,3.13
2022-10-28T11:53:19.146Z,4.30
2022-10-28T11:55:53.837Z,4.50
2022-10-28T11:58:33.454Z,3.90
2022-10-28T12:01:14.742Z,3.67
2022-10-28T12:03:57.599Z,4.73
2022-10-28T12:06:38.912Z,3.73
2022-10-28T12:09:19.114Z,4.00
2022-10-28T12:12:06.561Z,3.50
2022-10-28T12:14:43.876Z,3.60
2022-10-28T12:17:17.877Z,2.23
2022-10-28T12:19:53.693Z,3.23
2022-10-28T12:22:28.074Z,4.00
2022-10-28T12:24:59.683Z,3.70
2022-10-28T12:27:31.691Z,4.03
2022-10-28T12:30:04.312Z,2.70
2022-10-28T12:32:36.255Z,2.93
2022-10-28T12:35:09.219Z,3.20
2022-10-28T12:37:44.819Z,2.93
2022-10-28T12:40:20.665Z,2.93
2022-10-28T12:42:55.372Z,2.80
2022-10-28T12:45:25.070Z,3.40
2022-10-28T12:48:00.916Z,2.87
2022-10-28T12:50:35.492Z,2.40
2022-10-28T12:53:33.496Z,4.37
2022-10-28T12:56:04.973Z,3.50
2022-10-28T12:58:36.639Z,3.40
2022-10-28T13:01:09.955Z,2.93
2022-10-28T13:03:38.350Z,2.97
2022-10-28T13:06:33.960Z,3.73
2022-10-28T13:09:33.268Z,4.10
2022-10-28T13:12:52.138Z,4.07
2022-10-28T13:15:35.313Z,3.53
2022-10-28T13:18:29.956Z,3.70
2022-10-28T13:21:11.906Z,3.40
2022-10-28T13:23:46.016Z,2.90
2022-10-28T13:26:23.286Z,3.67
2022-10-28T13:28:56.397Z,3.90
2022-10-28T13:31:25.203Z,3.40
2022-10-28T13:33:56.862Z,3.63
2022-10-28T13:36:28.422Z,3.50
2022-10-28T13:38:59.799Z,3.33
2022-10-28T13:41:34.695Z,3.50
2022-10-28T13:44:27.023Z,3.80
2022-10-28T13:47:23.534Z,4.07
2022-10-28T13:50:15.045Z,3.53
2022-10-28T13:53:55.419Z,3.27
2022-10-28T13:56:37.887Z,4.20
2022-10-28T13:59:16.762Z,2.93
2022-10-28T14:02:35.585Z,3.43
2022-10-28T14:05:06.967Z,3.70
2022-10-28T14:07:37.112Z,2.97
2022-10-28T14:10:24.291Z,3.80
2022-10-28T14:12:56.232Z,3.77
2022-10-28T14:15:27.484Z,3.20
2022-10-28T14:18:10.239Z,3.03
2022-10-28T14:20:59.140Z,4.40
2022-10-28T14:24:08.159Z,4.13
2022-10-28T14:27:09.891Z,3.67
2022-10-28T14:29:44.806Z,3.77
2022-10-28T14:32:42.595Z,3.67
2022-10-28T14:35:28.394Z,4.60
2022-10-28T14:38:28.736Z,3.10
2022-10-28T14:41:07.557Z,3.43
2022-10-28T14:43:49.514Z,3.90
2022-10-28T14:46:36.011Z,3.63
2022-10-28T14:49:09.174Z,4.13
2022-10-28T14:51:42.874Z,3.83
2022-10-28T14:54:17.468Z,4.13
2022-10-28T14:56:48.202Z,4.00
2022-10-28T14:59:25.623Z,4.27
2022-10-28T15:02:11.478Z,3.60
2022-10-28T15:04:41.575Z,3.40
2022-10-28T15:07:15.201Z,3.57
2022-10-28T15:09:44.714Z,4.40
2022-10-28T15:12:15.372Z,4.60
2022-10-28T15:14:47.546Z,3.90
2022-10-28T15:17:18.446Z,4.83
2022-10-28T15:19:49.309Z,3.03
2022-10-28T15:22:22.053Z,3.80
2022-10-28T15:25:04.656Z,3.50
2022-10-28T15:27:38.356Z,4.57
2022-10-28T15:30:17.815Z,4.33
2022-10-28T15:32:51.527Z,3.73
2022-10-28T15:35:44.738Z,4.20
2022-10-28T15:38:47.270Z,3.80
2022-10-28T15:41:54.728Z,4.43
2022-10-28T15:44:39.923Z,3.80
2022-10-28T15:47:28.933Z,4.90
2022-10-28T15:50:10.086Z,4.10
2022-10-28T15:52:49.682Z,4.50
2022-10-28T15:56:02.297Z,3.33
2022-10-28T15:58:41.619Z,3.83
2022-10-28T16:01:34.757Z,4.20
2022-10-28T16:04:11.232Z,4.33
2022-10-28T16:06:47.334Z,4.90
2022-10-28T16:09:27.047Z,3.70
2022-10-28T16:12:08.716Z,3.70
2022-10-28T16:14:45.514Z,4.10
2022-10-28T16:17:27.325Z,3.73
2022-10-28T16:20:07.088Z,3.70
2022-10-28T16:22:39.058Z,5.17
2022-10-28T16:25:14.163Z,5.10
2022-10-28T16:27:44.519Z,5.13
2022-10-28T16:30:13.519Z,4.80
2022-10-28T16:32:45.120Z,4.10
2022-10-28T16:35:16.096Z,3.50
2022-10-28T16:37:46.605Z,3.63
2022-10-28T16:43:12.491Z,4.30
2022-10-28T16:45:40.485Z,4.20
2022-10-28T16:48:12.694Z,4.67
2022-10-28T16:50:42.463Z,4.43
2022-10-28T16:53:13.493Z,4.23
2022-10-28T16:55:41.880Z,4.00
2022-10-28T16:58:11.512Z,4.13
2022-10-28T17:00:40.290Z,4.17
2022-10-28T17:03:15.690Z,3.57
2022-10-28T17:05:44.787Z,4.00
2022-10-28T17:08:13.406Z,4.70
2022-10-28T17:10:42.377Z,4.50
2022-10-28T17:13:13.652Z,4.30
2022-10-28T17:15:43.320Z,5.00
2022-10-28T17:18:12.662Z,4.30
2022-10-28T17:20:40.680Z,4.53
2022-10-28T17:23:08.939Z,4.40
2022-10-28T17:25:37.033Z,4.93
2022-10-28T17:28:05.468Z,4.83
2022-10-28T17:30:35.576Z,4.53
2022-10-28T17:33:03.812Z,4.30
2022-10-28T17:35:31.897Z,4.87
2022-10-28T17:37:59.925Z,3.90
2022-10-28T17:40:28.498Z,4.00
2022-10-28T17:43:00.459Z,3.97
2022-10-28T17:45:28.649Z,5.20
2022-10-28T17:48:00.114Z,4.90
2022-10-28T17:50:28.212Z,3.57
2022-10-28T17:52:56.819Z,4.33
2022-10-28T17:55:25.257Z,5.10
2022-10-28T17:57:53.599Z,5.40
2022-10-28T18:00:22.236Z,5.20
2022-10-28T18:02:50.546Z,4.40
2022-10-28T18:05:20.190Z,4.53
2022-10-28T18:07:48.348Z,4.50
2022-10-28T18:10:16.842Z,4.60
2022-10-28T18:12:45.002Z,3.80
2022-10-28T18:15:13.103Z,5.00
2022-10-28T18:17:41.080Z,4.20
2022-10-28T18:20:10.432Z,4.00
2022-10-28T18:22:42.653Z,4.13
2022-10-28T18:25:10.718Z,4.70
2022-10-28T18:27:38.932Z,4.20
2022-10-28T18:30:08.097Z,3.97
2022-10-28T18:32:36.286Z,4.37
2022-10-28T18:35:09.090Z,4.77
2022-10-28T18:37:37.284Z,5.30
2022-10-28T18:40:08.398Z,4.10
2022-10-28T18:42:36.468Z,4.43
2022-10-28T18:45:05.542Z,5.00
2022-10-28T18:47:36.010Z,5.25
2022-10-28T18:50:04.250Z,4.50
2022-10-28T18:52:32.279Z,5.15
2022-10-28T18:55:01.064Z,5.13
2022-10-28T18:57:30.536Z,4.57
2022-10-28T19:00:17.371Z,4.38
2022-10-28T19:02:47.796Z,4.78
2022-10-28T19:05:16.301Z,5.55
2022-10-28T19:07:44.952Z,5.13
2022-10-28T19:10:13.138Z,4.10
2022-10-28T19:12:45.044Z,5.78
2022-10-28T19:15:14.963Z,5.05
2022-10-28T19:17:43.027Z,5.25
2022-10-28T19:20:11.945Z,5.20
2022-10-28T19:22:39.933Z,4.50
2022-10-28T19:25:08.584Z,4.30
2022-10-28T19:27:36.720Z,4.97
2022-10-28T19:30:09.296Z,6.50
2022-10-28T19:32:40.508Z,5.55
2022-10-28T19:35:09.391Z,5.15
2022-10-28T19:37:37.460Z,4.93
2022-10-28T19:40:06.345Z,5.47
2022-10-28T19:42:34.391Z,4.90
2022-10-28T19:45:03.901Z,4.60
2022-10-28T19:47:33.710Z,4.75
2022-10-28T19:50:01.732Z,6.10
2022-10-28T19:52:29.784Z,5.05
2022-10-28T19:54:57.798Z,4.28
2022-10-28T19:57:25.852Z,5.13
2022-10-28T19:59:53.829Z,5.22
2022-10-28T20:02:22.187Z,4.72
2022-10-28T20:04:54.873Z,5.30
2022-10-28T20:07:23.400Z,5.20
2022-10-28T20:09:52.718Z,4.18
2022-10-28T20:12:26.864Z,5.30
2022-10-28T20:15:01.596Z,5.68
2022-10-28T20:17:36.462Z,4.72
2022-10-28T20:20:10.898Z,4.68
2022-10-28T20:22:45.817Z,4.55
2022-10-28T20:25:19.792Z,4.97
2022-10-28T20:27:56.052Z,4.88
2022-10-28T20:30:29.932Z,6.10
2022-10-28T20:33:02.675Z,5.32
2022-10-28T20:35:40.193Z,5.55
2022-10-28T20:38:11.101Z,4.88
2022-10-28T20:40:39.118Z,6.13
2022-10-28T20:43:07.408Z,4.50
2022-10-28T20:45:35.509Z,5.53
2022-10-28T20:48:03.548Z,5.13
2022-10-28T20:50:31.587Z,5.13
2022-10-28T20:53:06.569Z,4.57
2022-10-28T20:55:34.590Z,5.65
2022-10-28T20:58:02.625Z,4.68
2022-10-28T21:00:30.751Z,5.25
2022-10-28T21:02:59.334Z,5.38
2022-10-28T21:05:28.084Z,5.22
2022-10-28T21:07:56.614Z,4.93
2022-10-28T21:10:26.404Z,5.80
2022-10-28T21:12:54.530Z,6.70
2022-10-28T21:15:23.248Z,5.40
2022-10-28T21:17:51.365Z,4.85
2022-10-28T21:20:21.817Z,5.28
2022-10-28T21:22:49.974Z,4.53
2022-10-28T21:25:18.767Z,6.72
2022-10-28T21:27:48.286Z,6.32
2022-10-28T21:30:16.514Z,5.30
2022-10-28T21:32:44.600Z,5.90
2022-10-28T21:35:14.193Z,4.80
2022-10-28T21:37:42.174Z,5.65
2022-10-28T21:40:11.815Z,5.70
2022-10-28T21:42:40.031Z,5.53
2022-10-28T21:45:10.631Z,5.50
2022-10-28T21:47:59.226Z,6.40
2022-10-28T21:50:27.462Z,4.80
2022-10-28T21:55:41.688Z,5.35
2022-10-28T21:58:29.715Z,4.85
2022-10-28T22:01:04.692Z,6.10
2022-10-28T22:03:32.898Z,5.20
2022-10-28T22:06:01.003Z,5.57
2022-10-28T22:08:29.897Z,5.40
2022-10-28T22:11:02.660Z,5.20
2022-10-28T22:13:31.185Z,5.53
2022-10-28T22:16:00.765Z,6.15
2022-10-28T22:18:31.322Z,5.68
2022-10-28T22:21:04.815Z,5.22
2022-10-28T22:23:32.951Z,5.80
2022-10-28T22:26:03.004Z,6.82
2022-10-28T22:28:31.409Z,5.70
2022-10-28T22:31:00.135Z,4.93
2022-10-28T22:33:28.536Z,4.95
2022-10-28T22:35:59.028Z,4.50
2022-10-28T22:38:27.409Z,5.60
2022-10-28T22:41:06.457Z,4.97
2022-10-28T22:43:35.493Z,4.63
2022-10-28T22:46:04.376Z,4.88
2022-10-28T22:48:33.621Z,6.35
2022-10-28T22:51:03.272Z,5.43
2022-10-28T22:53:31.857Z,5.25
2022-10-28T22:56:00.132Z,5.20
2022-10-28T22:58:29.032Z,5.70
2022-10-28T23:01:06.946Z,5.85
2022-10-28T23:03:39.635Z,4.53
2022-10-28T23:06:10.395Z,5.30
2022-10-28T23:08:40.324Z,5.47
2022-10-28T23:11:10.152Z,5.05
2022-10-28T23:13:38.740Z,5.50
2022-10-28T23:16:08.640Z,6.07
2022-10-28T23:18:37.616Z,6.03
2022-10-28T23:21:07.455Z,5.53
2022-10-28T23:23:36.993Z,5.82
2022-10-28T23:26:05.679Z,4.70
2022-10-28T23:28:33.685Z,4.78
2022-10-28T23:31:02.255Z,4.35
2022-10-28T23:33:31.039Z,4.70
2022-10-28T23:36:00.985Z,5.07
2022-10-28T23:38:29.210Z,5.82
2022-10-28T23:41:00.387Z,4.72
2022-10-28T23:43:29.117Z,5.22
2022-10-28T23:45:57.456Z,4.00
2022-10-28T23:48:27.280Z,5.25
2022-10-28T23:50:55.905Z,4.60
2022-10-28T23:53:24.399Z,4.57
2022-10-28T23:55:53.138Z,5.55
2022-10-28T23:58:24.120Z,5.75
